createdAt,value
2022-12-18T00:01:22.064Z,25.35
2022-12-18T00:03:49.888Z,25.77
2022-12-18T00:06:17.773Z,24.65
2022-12-18T00:08:45.923Z,25.23
2022-12-18T00:11:15.757Z,26.15
2022-12-18T00:13:43.038Z,26.52
2022-12-18T00:16:15.787Z,25.88
2022-12-18T00:18:43.449Z,26.70
2022-12-18T00:21:12.813Z,26.08
2022-12-18T00:23:42.398Z,28.08
2022-12-18T00:26:21.075Z,27.50
2022-12-18T00:28:50.916Z,25.88
2022-12-18T00:31:21.023Z,27.08
2022-12-18T00:33:49.077Z,26.65
2022-12-18T00:36:24.247Z,24.90
2022-12-18T00:38:52.919Z,25.27
2022-12-18T00:41:38.809Z,24.30
2022-12-18T00:44:07.634Z,23.27
2022-12-18T00:46:34.997Z,24.08
2022-12-18T00:49:02.153Z,23.98
2022-12-18T00:51:29.162Z,26.13
2022-12-18T00:53:56.486Z,23.95
2022-12-18T00:56:24.692Z,25.98
2022-12-18T00:58:52.874Z,27.27
2022-12-18T01:01:20.019Z,25.75
2022-12-18T01:03:47.837Z,26.75
2022-12-18T01:06:17.162Z,25.88
2022-12-18T01:08:44.328Z,24.13
2022-12-18T01:11:18.837Z,25.42
2022-12-18T01:13:45.954Z,24.25
2022-12-18T01:16:17.537Z,23.90
2022-12-18T01:18:44.935Z,21.25
2022-12-18T01:21:15.986Z,22.08
2022-12-18T01:23:45.907Z,21.90
2022-12-18T01:26:15.755Z,22.88
2022-12-18T01:31:22.388Z,23.15
2022-12-18T01:33:50.614Z,23.65
2022-12-18T01:36:24.173Z,22.85
2022-12-18T01:38:51.928Z,22.55
2022-12-18T01:41:25.363Z,22.00
2022-12-18T01:43:58.502Z,21.02
2022-12-18T01:46:27.351Z,21.42
2022-12-18T01:49:02.477Z,18.67
2022-12-18T01:51:31.920Z,20.52
2022-12-18T01:54:00.734Z,21.85
2022-12-18T01:56:28.213Z,21.38
2022-12-18T01:59:03.605Z,20.52
2022-12-18T02:01:32.194Z,20.85
2022-12-18T02:04:27.929Z,21.23
2022-12-18T02:07:18.287Z,22.02
2022-12-18T02:09:56.009Z,21.90
2022-12-18T02:12:27.740Z,22.08
2022-12-18T02:15:30.689Z,22.70
2022-12-18T02:18:06.289Z,21.10
2022-12-18T02:20:44.927Z,24.48
2022-12-18T02:23:22.124Z,22.90
2022-12-18T02:26:19.822Z,24.85
2022-12-18T02:28:55.454Z,23.45
2022-12-18T02:31:26.947Z,23.98
2022-12-18T02:33:57.615Z,24.02
2022-12-18T02:36:26.797Z,25.23
2022-12-18T02:38:57.775Z,24.65
2022-12-18T02:41:25.655Z,25.20
2022-12-18T02:44:02.678Z,24.92
2022-12-18T02:46:37.718Z,25.67
2022-12-18T02:49:30.685Z,24.83
2022-12-18T02:52:18.053Z,25.40
2022-12-18T02:55:29.615Z,24.48
2022-12-18T02:58:01.467Z,23.98
2022-12-18T03:00:43.388Z,23.98
2022-12-18T03:03:25.703Z,25.20
2022-12-18T03:05:59.607Z,25.73
2022-12-18T03:08:32.787Z,25.88
2022-12-18T03:11:04.484Z,26.48
2022-12-18T03:13:41.688Z,27.88
2022-12-18T03:16:19.143Z,26.30
2022-12-18T03:18:55.074Z,26.60
2022-12-18T03:21:29.647Z,23.92
2022-12-18T03:23:58.069Z,26.20
2022-12-18T03:26:30.376Z,26.63
2022-12-18T03:29:05.895Z,27.42
2022-12-18T03:31:36.815Z,26.48
2022-12-18T03:34:10.214Z,26.83
2022-12-18T03:36:42.805Z,24.60
2022-12-18T03:39:10.155Z,26.33
2022-12-18T03:41:44.910Z,28.13
2022-12-18T03:45:28.430Z,24.42
2022-12-18T03:48:08.665Z,25.27
2022-12-18T03:50:49.937Z,24.25
2022-12-18T03:53:43.231Z,25.17
2022-12-18T03:56:13.788Z,25.98
2022-12-18T03:58:45.005Z,25.35
2022-12-18T04:01:30.589Z,24.42
2022-12-18T04:04:01.387Z,24.80
2022-12-18T04:06:31.983Z,24.85
2022-12-18T04:09:00.214Z,22.63
2022-12-18T04:11:27.700Z,24.73
2022-12-18T04:13:58.645Z,24.80
2022-12-18T04:16:27.251Z,23.38
2022-12-18T04:18:57.461Z,21.83
2022-12-18T04:21:26.495Z,22.20
2022-12-18T04:23:53.982Z,23.00
2022-12-18T04:26:23.375Z,22.47
2022-12-18T04:29:14.276Z,23.00
2022-12-18T04:31:41.312Z,23.70
2022-12-18T04:34:08.372Z,23.10
2022-12-18T04:36:41.207Z,21.13
2022-12-18T04:39:08.593Z,23.70
2022-12-18T04:41:35.612Z,20.45
2022-12-18T04:44:03.873Z,23.33
2022-12-18T04:46:30.966Z,22.20
2022-12-18T04:48:58.078Z,21.75
2022-12-18T04:51:26.798Z,23.30
2022-12-18T04:53:55.042Z,20.95
2022-12-18T04:56:22.397Z,21.15
2022-12-18T04:58:49.734Z,19.65
2022-12-18T05:01:18.995Z,20.83
2022-12-18T05:03:46.398Z,20.13
2022-12-18T05:06:13.643Z,18.77
2022-12-18T05:08:40.896Z,18.27
2022-12-18T05:11:13.676Z,18.85
2022-12-18T05:13:41.120Z,17.30
2022-12-18T05:16:09.136Z,17.65
2022-12-18T05:18:36.306Z,18.52
2022-12-18T05:21:03.762Z,17.17
2022-12-18T05:23:30.876Z,19.92
2022-12-18T05:26:00.475Z,15.98
2022-12-18T05:28:29.085Z,16.85
2022-12-18T05:30:59.339Z,17.60
2022-12-18T05:33:29.881Z,16.23
2022-12-18T05:36:02.194Z,16.52
2022-12-18T05:38:30.406Z,17.48
2022-12-18T05:40:58.390Z,15.75
2022-12-18T05:43:26.757Z,15.00
2022-12-18T05:45:54.627Z,16.02
2022-12-18T05:48:22.537Z,15.57
2022-12-18T05:50:51.667Z,14.82
2022-12-18T05:53:20.569Z,14.80
2022-12-18T05:55:48.215Z,15.38
2022-12-18T05:58:15.716Z,15.00
2022-12-18T06:00:45.486Z,14.30
2022-12-18T06:03:14.519Z,15.38
2022-12-18T06:05:46.153Z,16.17
2022-12-18T06:08:14.408Z,14.48
2022-12-18T06:10:42.603Z,14.15
2022-12-18T06:13:10.120Z,13.57
2022-12-18T06:15:40.178Z,12.52
2022-12-18T06:18:07.484Z,14.73
2022-12-18T06:20:34.845Z,14.20
2022-12-18T06:23:01.886Z,14.50
2022-12-18T06:25:29.008Z,14.07
2022-12-18T06:27:56.070Z,14.43
2022-12-18T06:30:23.159Z,15.18
2022-12-18T06:32:56.360Z,14.35
2022-12-18T06:35:24.182Z,14.98
2022-12-18T06:37:51.276Z,17.08
2022-12-18T06:40:18.515Z,16.45
2022-12-18T06:42:45.499Z,15.35
2022-12-18T06:45:12.723Z,16.80
2022-12-18T06:47:39.769Z,17.02
2022-12-18T06:50:07.405Z,17.85
2022-12-18T06:52:34.744Z,18.35
2022-12-18T06:55:02.184Z,18.40
2022-12-18T06:57:29.256Z,18.38
2022-12-18T06:59:56.330Z,19.95
2022-12-18T07:02:23.496Z,18.77
2022-12-18T07:04:51.926Z,20.15
2022-12-18T07:07:19.035Z,17.75
2022-12-18T07:09:46.187Z,18.10
2022-12-18T07:12:13.218Z,16.60
2022-12-18T07:14:40.185Z,16.08
2022-12-18T07:17:07.281Z,18.52
2022-12-18T07:19:34.822Z,17.30
2022-12-18T07:22:02.156Z,18.17
2022-12-18T07:24:30.154Z,18.95
2022-12-18T07:26:57.107Z,17.83
2022-12-18T07:29:24.413Z,18.30
2022-12-18T07:31:51.576Z,16.60
2022-12-18T07:34:18.685Z,18.60
2022-12-18T07:36:45.751Z,18.25
2022-12-18T07:39:13.166Z,17.90
2022-12-18T07:41:46.707Z,19.38
2022-12-18T07:44:16.615Z,18.65
2022-12-18T07:46:43.645Z,18.90
2022-12-18T07:49:10.634Z,19.85
2022-12-18T07:51:37.655Z,21.23
2022-12-18T07:54:05.857Z,21.00
2022-12-18T07:56:33.056Z,20.23
2022-12-18T07:59:00.535Z,19.50
2022-12-18T08:01:28.190Z,18.77
2022-12-18T08:03:55.518Z,19.67
2022-12-18T08:06:24.479Z,20.05
2022-12-18T08:08:53.856Z,21.45
2022-12-18T08:11:21.760Z,21.40
2022-12-18T08:13:48.964Z,22.63
2022-12-18T08:16:17.506Z,21.58
2022-12-18T08:18:44.695Z,20.77
2022-12-18T08:21:16.990Z,21.45
2022-12-18T08:23:44.794Z,22.48
2022-12-18T08:26:12.969Z,20.27
2022-12-18T08:28:40.925Z,23.25
2022-12-18T08:31:09.129Z,23.85
2022-12-18T08:33:39.050Z,19.80
2022-12-18T08:36:06.995Z,20.13
2022-12-18T08:38:34.678Z,19.45
2022-12-18T08:41:02.461Z,21.63
2022-12-18T08:43:48.066Z,19.52
2022-12-18T08:46:17.960Z,19.85
2022-12-18T08:51:12.256Z,19.55
2022-12-18T08:53:40.180Z,20.52
2022-12-18T08:56:07.890Z,21.25
2022-12-18T08:58:35.121Z,19.35
2022-12-18T09:01:10.465Z,20.95
2022-12-18T09:03:38.617Z,20.27
2022-12-18T09:06:06.590Z,19.77
2022-12-18T09:08:37.872Z,18.83
2022-12-18T09:11:05.806Z,18.38
2022-12-18T09:13:32.835Z,17.92
2022-12-18T09:16:00.000Z,18.55
2022-12-18T09:18:27.308Z,19.58
2022-12-18T09:20:54.539Z,18.67
2022-12-18T09:23:23.689Z,18.58
2022-12-18T09:25:50.909Z,19.00
2022-12-18T09:28:19.558Z,18.90
2022-12-18T09:30:49.982Z,20.10
2022-12-18T09:33:18.004Z,21.02
2022-12-18T09:35:46.524Z,20.73
2022-12-18T09:38:19.266Z,21.02
2022-12-18T09:40:49.824Z,21.90
2022-12-18T09:43:28.445Z,21.60
2022-12-18T09:46:02.506Z,19.38
2022-12-18T09:48:40.032Z,21.25
2022-12-18T09:51:20.896Z,19.92
2022-12-18T09:53:55.149Z,21.45
2022-12-18T09:56:24.156Z,20.35
2022-12-18T09:58:59.580Z,21.23
2022-12-18T10:01:36.369Z,20.42
2022-12-18T10:04:10.378Z,19.60
2022-12-18T10:06:40.944Z,20.80
2022-12-18T10:09:16.779Z,20.65
2022-12-18T10:12:05.079Z,20.20
2022-12-18T10:14:34.095Z,19.90
2022-12-18T10:17:22.390Z,19.85
2022-12-18T10:20:14.777Z,18.80
2022-12-18T10:23:08.392Z,20.52
2022-12-18T10:25:43.612Z,21.83
2022-12-18T10:28:16.225Z,21.58
2022-12-18T10:30:44.645Z,20.98
2022-12-18T10:33:22.171Z,22.67
2022-12-18T10:35:54.808Z,20.23
2022-12-18T10:38:30.479Z,20.50
2022-12-18T10:41:06.681Z,19.65
2022-12-18T10:43:37.081Z,22.55
2022-12-18T10:46:16.045Z,22.42
2022-12-18T10:48:50.723Z,22.00
2022-12-18T10:51:31.395Z,21.88
2022-12-18T10:54:06.520Z,21.45
2022-12-18T10:56:37.268Z,22.15
2022-12-18T10:59:05.855Z,28.30
2022-12-18T11:02:01.334Z,32.15
2022-12-18T11:04:31.278Z,27.45
2022-12-18T11:07:06.038Z,30.60
2022-12-18T11:09:34.803Z,26.92
2022-12-18T11:12:05.015Z,30.20
2022-12-18T11:14:47.426Z,31.85
2022-12-18T11:17:27.689Z,29.73
2022-12-18T11:19:57.193Z,28.73
2022-12-18T11:22:36.335Z,27.80
2022-12-18T11:25:34.728Z,32.65
2022-12-18T11:28:23.981Z,27.93
2022-12-18T11:31:09.422Z,27.00
2022-12-18T11:33:39.568Z,28.65
2022-12-18T11:36:10.996Z,29.67
2022-12-18T11:38:41.477Z,28.27
2022-12-18T11:41:16.224Z,29.15
2022-12-18T11:43:50.963Z,30.17
2022-12-18T11:46:39.349Z,28.55
2022-12-18T11:49:18.427Z,27.38
2022-12-18T11:52:11.146Z,26.92
2022-12-18T11:54:38.282Z,27.38
2022-12-18T11:57:36.085Z,27.67
2022-12-18T12:00:16.067Z,26.52
2022-12-18T12:05:38.195Z,25.80
2022-12-18T12:08:07.849Z,24.55
2022-12-18T12:10:46.846Z,25.65
2022-12-18T12:13:16.724Z,25.50
2022-12-18T12:18:36.675Z,22.95
2022-12-18T12:21:04.360Z,24.20
2022-12-18T12:23:56.055Z,24.00
2022-12-18T12:26:50.880Z,24.05
2022-12-18T12:29:52.548Z,24.55
2022-12-18T12:32:36.480Z,27.15
2022-12-18T12:35:40.760Z,23.85
2022-12-18T12:38:16.699Z,24.45
2022-12-18T12:40:55.201Z,28.33
2022-12-18T12:43:32.408Z,27.55
2022-12-18T12:46:15.348Z,26.05
2022-12-18T12:48:48.452Z,27.25
2022-12-18T12:51:21.418Z,26.80
2022-12-18T12:53:50.036Z,29.15
2022-12-18T12:56:20.855Z,31.20
2022-12-18T12:58:54.377Z,31.17
2022-12-18T13:01:40.067Z,31.95
2022-12-18T13:04:19.044Z,29.92
2022-12-18T13:07:11.981Z,32.70
2022-12-18T13:10:18.189Z,32.33
2022-12-18T13:13:09.003Z,32.50
2022-12-18T13:15:39.317Z,30.17
2022-12-18T13:18:13.161Z,31.73
2022-12-18T13:20:52.463Z,31.42
2022-12-18T13:23:24.180Z,31.25
2022-12-18T13:26:01.897Z,29.98
2022-12-18T13:28:35.024Z,31.35
2022-12-18T13:31:03.527Z,28.05
2022-12-18T13:33:30.541Z,29.58
2022-12-18T13:36:30.737Z,27.00
2022-12-18T13:39:21.237Z,26.70
2022-12-18T13:42:34.888Z,25.83
2022-12-18T13:45:02.137Z,28.10
2022-12-18T13:47:41.178Z,28.13
2022-12-18T13:50:30.937Z,26.63
2022-12-18T13:53:04.349Z,28.17
2022-12-18T13:55:31.387Z,27.02
2022-12-18T13:58:06.352Z,27.77
2022-12-18T14:00:33.561Z,26.73
2022-12-18T14:03:01.514Z,27.63
2022-12-18T14:05:31.652Z,27.23
2022-12-18T14:08:06.737Z,26.75
2022-12-18T14:10:47.683Z,25.88
2022-12-18T14:13:32.784Z,25.27
2022-12-18T14:16:04.105Z,27.45
2022-12-18T14:18:31.358Z,26.45
2022-12-18T14:21:00.775Z,28.33
2022-12-18T14:23:38.799Z,27.52
2022-12-18T14:26:30.659Z,26.83
2022-12-18T14:29:02.333Z,23.67
2022-12-18T14:31:32.837Z,24.88
2022-12-18T14:33:59.894Z,26.88
2022-12-18T14:36:29.610Z,24.92
2022-12-18T14:38:58.653Z,25.08
2022-12-18T14:41:26.734Z,25.55
2022-12-18T14:43:55.643Z,27.08
2022-12-18T14:46:43.754Z,28.10
2022-12-18T14:49:28.086Z,28.38
2022-12-18T14:51:57.897Z,27.27
2022-12-18T14:54:26.205Z,27.63
2022-12-18T14:57:02.186Z,28.08
2022-12-18T14:59:30.829Z,28.63
2022-12-18T15:02:20.140Z,27.75
2022-12-18T15:04:47.717Z,30.85
2022-12-18T15:07:22.295Z,27.33
2022-12-18T15:10:15.625Z,26.08
2022-12-18T15:12:44.181Z,25.85
2022-12-18T15:15:40.519Z,26.50
2022-12-18T15:18:13.554Z,26.10
2022-12-18T15:20:47.666Z,27.55
2022-12-18T15:23:46.488Z,29.00
2022-12-18T15:26:16.821Z,27.88
2022-12-18T15:28:59.761Z,26.38
2022-12-18T15:31:36.332Z,27.73
2022-12-18T15:34:09.485Z,33.58
2022-12-18T15:36:37.771Z,33.85
2022-12-18T15:39:06.795Z,29.83
2022-12-18T15:41:36.387Z,30.40
2022-12-18T15:44:04.770Z,31.88
2022-12-18T15:46:32.362Z,31.05
2022-12-18T15:49:02.785Z,31.17
2022-12-18T15:51:36.187Z,30.58
2022-12-18T15:54:06.261Z,28.88
2022-12-18T15:56:51.936Z,33.78
2022-12-18T15:59:21.100Z,30.27
2022-12-18T16:01:50.511Z,31.80
2022-12-18T16:04:21.722Z,31.33
2022-12-18T16:09:37.955Z,29.95
2022-12-18T16:12:06.184Z,30.15
2022-12-18T16:14:33.783Z,28.15
2022-12-18T16:17:10.354Z,28.13
2022-12-18T16:19:37.426Z,29.38
2022-12-18T16:22:05.093Z,25.60
2022-12-18T16:24:34.856Z,27.20
2022-12-18T16:27:02.326Z,24.00
2022-12-18T16:29:30.607Z,24.75
2022-12-18T16:31:59.499Z,24.92
2022-12-18T16:34:29.797Z,24.60
2022-12-18T16:37:06.581Z,24.42
2022-12-18T16:39:35.807Z,24.98
2022-12-18T16:42:10.564Z,25.13
2022-12-18T16:44:37.836Z,25.40
2022-12-18T16:47:05.237Z,25.50
2022-12-18T16:49:33.856Z,25.65
2022-12-18T16:52:03.768Z,26.80
2022-12-18T16:56:58.395Z,27.38
2022-12-18T16:59:26.916Z,28.15
2022-12-18T17:01:56.077Z,26.75
2022-12-18T17:04:23.906Z,25.20
2022-12-18T17:06:52.405Z,25.95
2022-12-18T17:09:29.615Z,26.75
2022-12-18T17:11:56.966Z,25.10
2022-12-18T17:14:25.455Z,27.15
2022-12-18T17:17:19.654Z,26.20
2022-12-18T17:19:41.251Z,28.42
2022-12-18T17:22:09.017Z,28.17
2022-12-18T17:24:36.628Z,26.95
2022-12-18T17:27:05.032Z,24.70
2022-12-18T17:29:32.311Z,26.00
2022-12-18T17:32:00.337Z,26.67
2022-12-18T17:34:28.434Z,23.42
2022-12-18T17:36:57.140Z,25.10
2022-12-18T17:39:24.556Z,25.80
2022-12-18T17:41:51.780Z,23.77
2022-12-18T17:44:19.644Z,24.88
2022-12-18T17:46:48.012Z,23.40
2022-12-18T17:49:15.568Z,20.90
2022-12-18T17:51:43.364Z,22.55
2022-12-18T17:54:11.174Z,23.17
2022-12-18T17:56:39.127Z,24.00
2022-12-18T17:59:07.337Z,25.08
2022-12-18T18:01:39.660Z,25.75
2022-12-18T18:04:11.290Z,28.60
2022-12-18T18:06:38.902Z,25.02
2022-12-18T18:09:15.955Z,25.55
2022-12-18T18:12:03.853Z,27.15
2022-12-18T18:14:31.259Z,28.60
2022-12-18T18:17:01.122Z,26.80
2022-12-18T18:19:33.682Z,28.13
2022-12-18T18:22:02.927Z,27.90
2022-12-18T18:24:30.477Z,30.60
2022-12-18T18:26:59.770Z,28.75
2022-12-18T18:29:30.616Z,34.25
2022-12-18T18:31:58.292Z,28.80
2022-12-18T18:34:28.371Z,29.13
2022-12-18T18:36:55.652Z,28.58
2022-12-18T18:39:26.220Z,25.77
2022-12-18T18:41:53.348Z,26.67
2022-12-18T18:44:26.191Z,25.13
2022-12-18T18:46:58.159Z,34.08
2022-12-18T18:49:27.859Z,28.80
2022-12-18T18:51:56.698Z,28.02
2022-12-18T18:54:24.370Z,26.70
2022-12-18T18:59:38.780Z,25.58
2022-12-18T19:02:06.238Z,27.48
2022-12-18T19:04:34.604Z,28.80
2022-12-18T19:07:01.966Z,28.10
2022-12-18T19:09:29.566Z,30.70
2022-12-18T19:12:15.089Z,28.15
2022-12-18T19:14:42.750Z,28.35
2022-12-18T19:17:10.629Z,29.58
2022-12-18T19:19:38.001Z,29.08
2022-12-18T19:22:08.286Z,28.05
2022-12-18T19:27:03.271Z,28.13
2022-12-18T19:29:30.602Z,29.50
2022-12-18T19:31:57.711Z,28.80
2022-12-18T19:34:24.900Z,30.75
2022-12-18T19:36:56.523Z,27.00
2022-12-18T19:39:26.609Z,28.08
2022-12-18T19:41:53.684Z,30.50
2022-12-18T19:44:21.464Z,29.13
2022-12-18T19:46:51.762Z,28.27
2022-12-18T19:49:21.851Z,29.02
2022-12-18T19:51:50.359Z,29.52
2022-12-18T19:54:17.917Z,28.52
2022-12-18T19:56:45.764Z,29.80
2022-12-18T19:59:13.199Z,28.33
2022-12-18T20:01:40.696Z,29.30
2022-12-18T20:04:08.027Z,28.00
2022-12-18T20:06:46.931Z,26.23
2022-12-18T20:09:14.106Z,28.17
2022-12-18T20:11:41.821Z,30.05
2022-12-18T20:14:11.122Z,30.33
2022-12-18T20:16:38.500Z,28.07
2022-12-18T20:19:06.233Z,28.50
2022-12-18T20:21:34.059Z,29.35
2022-12-18T20:24:02.293Z,29.88
2022-12-18T20:26:30.145Z,29.35
2022-12-18T20:28:57.266Z,28.38
2022-12-18T20:31:24.933Z,29.42
2022-12-18T20:33:54.533Z,29.88
2022-12-18T20:36:27.060Z,31.33
2022-12-18T20:39:01.813Z,29.92
2022-12-18T20:41:37.205Z,27.55
2022-12-18T20:44:15.537Z,27.77
2022-12-18T20:46:53.404Z,27.45
2022-12-18T20:49:21.010Z,29.08
2022-12-18T20:51:51.204Z,30.23
2022-12-18T20:54:21.066Z,27.00
2022-12-18T20:56:48.152Z,27.85
2022-12-18T20:59:15.304Z,27.83
2022-12-18T21:01:48.466Z,26.80
2022-12-18T21:04:18.601Z,29.88
2022-12-18T21:09:18.710Z,27.70
2022-12-18T21:12:04.521Z,26.33
2022-12-18T21:14:31.612Z,28.35
2022-12-18T21:17:01.212Z,28.40
2022-12-18T21:19:29.335Z,29.45
2022-12-18T21:21:57.515Z,28.75
2022-12-18T21:24:25.783Z,27.30
2022-12-18T21:26:54.437Z,26.98
2022-12-18T21:29:26.172Z,25.65
2022-12-18T21:31:54.816Z,28.13
2022-12-18T21:34:27.505Z,29.67
2022-12-18T21:36:56.582Z,29.15
2022-12-18T21:39:24.966Z,28.20
2022-12-18T21:42:11.208Z,28.63
2022-12-18T21:44:41.599Z,27.38
2022-12-18T21:47:21.487Z,27.88
2022-12-18T21:49:49.894Z,28.73
2022-12-18T21:52:17.233Z,31.48
2022-12-18T21:54:44.395Z,30.08
2022-12-18T21:57:13.560Z,28.70
2022-12-18T21:59:42.845Z,27.52
2022-12-18T22:02:15.902Z,27.40
2022-12-18T22:04:45.296Z,26.40
2022-12-18T22:07:13.773Z,31.10
2022-12-18T22:09:40.822Z,26.00
2022-12-18T22:12:09.257Z,27.83
2022-12-18T22:14:36.546Z,27.45
2022-12-18T22:17:03.732Z,28.73
2022-12-18T22:19:31.025Z,29.10
2022-12-18T22:21:58.256Z,26.75
2022-12-18T22:24:26.959Z,31.20
2022-12-18T22:26:54.966Z,30.98
2022-12-18T22:29:47.428Z,30.55
2022-12-18T22:32:22.965Z,27.75
2022-12-18T22:35:09.264Z,28.80
2022-12-18T22:37:37.756Z,28.00
2022-12-18T22:40:07.414Z,24.88
2022-12-18T22:45:01.727Z,27.08
2022-12-18T22:47:30.329Z,26.02
2022-12-18T22:49:58.518Z,27.17
2022-12-18T22:52:25.739Z,29.40
2022-12-18T22:54:54.079Z,29.55
2022-12-18T22:57:24.645Z,26.00
2022-12-18T22:59:52.130Z,27.52
2022-12-18T23:02:19.940Z,27.13
2022-12-18T23:04:47.890Z,26.30
2022-12-18T23:07:16.031Z,30.55
2022-12-18T23:09:43.274Z,31.45
2022-12-18T23:12:15.276Z,29.17
2022-12-18T23:14:45.358Z,31.50
2022-12-18T23:17:12.382Z,29.90
2022-12-18T23:19:44.084Z,30.23
2022-12-18T23:22:14.462Z,27.60
2022-12-18T23:24:42.481Z,28.52
2022-12-18T23:27:11.437Z,28.73
2022-12-18T23:29:40.083Z,27.38
2022-12-18T23:32:07.976Z,29.00
2022-12-18T23:34:35.257Z,27.90
2022-12-18T23:37:03.849Z,27.17
2022-12-18T23:39:31.199Z,30.17
2022-12-18T23:41:58.981Z,30.65
2022-12-18T23:44:26.587Z,25.45
2022-12-18T23:46:53.802Z,27.50
2022-12-18T23:49:20.770Z,26.50
2022-12-18T23:51:47.740Z,28.77
2022-12-18T23:54:14.711Z,25.38
2022-12-18T23:56:41.840Z,27.15
2022-12-18T23:59:08.943Z,25.85
